• Join FlightAware (Why Join?)
  • Login
  • US Flag 
10:32PM EST


 

Airport Tracker/Info


-or-


 

Live Flight TrackerFlight Track Log ✈ N42HN ✈ 01-Jul-2013 ✈ KABQ - KNEW

Flight Track Log - Related Links

Times and Time Zones

All times are in EDT time to prevent confusion due to time zone crossing. See the N42HN flight status page for this flight to view local times or setup timezone preferences in your user account.

Time Position Orientation Groundspeed Altitude Reporting Facility
EDT Latitude Longitude Course Direction KTS MPH feet Rate Location/Type
07:48PM 35.0431 -106.5767 354° North 159 183 6,400  Level Albuquerque Center
07:50PM 35.1131 -106.5856 354° North 245 282 9,900 2,580 Climbing Albuquerque Center
07:51PM 35.1853 -106.5964 353° North 267 307 12,900 2,940 Climbing Albuquerque Center
07:52PM 35.1997 -106.4875 81° East 305 351 15,900 2,700 Climbing Albuquerque Center
07:53PM 35.1958 -106.3825 93° East 311 358 18,500 2,520 Climbing Albuquerque Center
07:54PM 35.2047 -106.2769 84° East 312 359 21,100 2,280 Climbing Albuquerque Center
07:55PM 35.2078 -106.1583 88° East 320 368 23,200 1,800 Climbing Albuquerque Center
07:56PM 35.2039 -106.0378 92° East 350 403 24,800 1,620 Climbing Albuquerque Center
07:57PM 35.2153 -105.9158 83° East 357 411 26,600 1,680 Climbing Albuquerque Center
07:58PM 35.2128 -105.7883 91° East 369 425 28,300 1,620 Climbing Albuquerque Center
07:59PM 35.2217 -105.6647 85° East 365 420 30,000 1,320 Climbing Albuquerque Center
08:00PM 35.2211 -105.5367 90° East 369 425 31,100 1,020 Climbing Albuquerque Center
08:01PM 35.2231 -105.4028 89° East 385 443 32,100 1,020 Climbing Albuquerque Center
08:02PM 35.2272 -105.2650 88° East 397 457 33,300 1,140 Climbing Albuquerque Center
08:03PM 35.2319 -105.1289 88° East 398 458 34,500 1,080 Climbing Albuquerque Center
08:04PM 35.2331 -104.9889 89° East 404 465 35,500 960 Climbing Albuquerque Center
08:05PM 35.2308 -104.8486 91° East 408 470 36,500 900 Climbing Albuquerque Center
08:06PM 35.2339 -104.6831 89° East 413 475 37,400 780 Climbing Albuquerque Center
08:07PM 35.2372 -104.5581 88° East 417 480 38,200 720 Climbing Albuquerque Center
08:08PM 35.2411 -104.4136 88° East 423 487 38,900 660 Climbing Albuquerque Center
08:09PM 35.2419 -104.2683 90° East 426 490 39,600 660 Climbing Albuquerque Center
08:10PM 35.2447 -104.0931 89° East 429 494 40,300 660 Climbing Albuquerque Center
08:11PM 35.2489 -103.9472 88° East 431 496 41,000 300 Climbing Albuquerque Center
08:12PM 35.2503 -103.8133 89° East 436 502 41,000  Level Albuquerque Center
08:13PM 35.2206 -103.6619 103° East 463 533 41,000  Level Albuquerque Center
08:14PM 35.1744 -103.4858 108° East 464 534 41,000  Level Albuquerque Center
08:15PM 35.1222 -103.3386 113° Southeast 465 535 41,000  Level Albuquerque Center
08:16PM 35.0842 -103.1869 107° East 465 535 41,000  Level Albuquerque Center
08:18PM 35.0367 -103.0378 111° Southeast 467 537 41,000  Level Albuquerque Center
08:19PM 34.9897 -102.8886 111° Southeast 467 537 41,000  Level Albuquerque Center
08:20PM 34.9497 -102.7378 108° East 467 537 41,000  Level Albuquerque Center
08:21PM 34.8961 -102.5858 113° Southeast 467 537 41,000  Level Albuquerque Center
08:22PM 34.8531 -102.4389 110° East 465 535 41,000  Level Albuquerque Center
08:23PM 34.8103 -102.2908 109° East 469 540 41,000  Level Albuquerque Center
08:24PM 34.7608 -102.1461 113° Southeast 468 539 41,000  Level Albuquerque Center
08:25PM 34.7203 -101.9986 108° East 466 536 41,000  Level Albuquerque Center
08:26PM 34.6625 -101.8233 112° Southeast 470 541 41,000  Level Albuquerque Center
08:27PM 34.6144 -101.6772 112° Southeast 470 541 41,000  Level Albuquerque Center
08:28PM 34.5711 -101.5272 109° East 474 545 41,000  Level Albuquerque Center
08:29PM 34.5192 -101.3831 114° Southeast 474 545 41,000  Level Albuquerque Center
08:30PM 34.4767 -101.2322 109° East 473 544 41,000  Level Albuquerque Center
08:31PM 34.4281 -101.0853 112° Southeast 475 547 41,000  Level Albuquerque Center
08:32PM 34.3772 -100.9375 113° Southeast 477 549 41,000  Level Albuquerque Center
08:33PM 34.3322 -100.7911 110° East 474 545 41,000  Level Fort Worth Center
08:34PM 34.2819 -100.6433 112° Southeast 479 551 41,000  Level Fort Worth Center
08:35PM 34.2356 -100.4933 110° East 479 551 41,000  Level Fort Worth Center
08:36PM 34.1886 -100.3586 113° Southeast 479 551 41,000  Level Fort Worth Center
08:37PM 34.1378 -100.2114 113° Southeast 479 551 41,000  Level Fort Worth Center
08:38PM 34.0931 -100.0594 110° East 479 551 41,000  Level Fort Worth Center
08:39PM 34.0378 -99.9097 114° Southeast 479 551 41,000  Level Fort Worth Center
08:40PM 33.9928 -99.7608 110° East 479 551 41,000  Level Fort Worth Center
08:41PM 33.9369 -99.6117 114° Southeast 479 551 41,000  Level Fort Worth Center
08:42PM 33.8894 -99.4628 111° Southeast 484 557 41,000  Level Fort Worth Center
08:43PM 33.8397 -99.3114 112° Southeast 484 557 41,000  Level Fort Worth Center
08:44PM 33.7856 -99.1628 114° Southeast 479 551 41,000  Level Fort Worth Center
08:45PM 33.7356 -98.9969 110° East 479 551 41,000  Level Fort Worth Center
08:46PM 33.6789 -98.8486 115° Southeast 479 551 41,000  Level Fort Worth Center
08:47PM 33.6303 -98.6983 111° Southeast 479 551 41,000  Level Fort Worth Center
08:48PM 33.5756 -98.5453 113° Southeast 479 551 41,000  Level Fort Worth Center
08:49PM 33.5183 -98.3950 115° Southeast 488 562 41,000  Level Fort Worth Center
08:50PM 33.4672 -98.2428 112° Southeast 488 562 41,000  Level Fort Worth Center
08:51PM 33.4139 -98.0928 113° Southeast 483 556 41,000  Level Fort Worth Center
08:52PM 33.3625 -97.9408 112° Southeast 488 562 41,000  Level Fort Worth Center
08:53PM 33.3044 -97.7889 115° Southeast 488 562 41,000  Level Fort Worth Center
08:54PM 33.2528 -97.6369 112° Southeast 494 568 41,000  Level Fort Worth Center
08:55PM 33.1967 -97.4831 114° Southeast 494 568 41,000  Level Fort Worth Center
08:56PM 33.1422 -97.3292 113° Southeast 500 575 41,000  Level Fort Worth Center
08:57PM 33.0900 -97.1731 112° Southeast 500 575 41,000  Level Fort Worth Center
08:58PM 33.0311 -97.0417 118° Southeast 499 574 41,000  Level Fort Worth Center
08:59PM 32.9722 -96.8736 113° Southeast 494 568 41,000  Level Fort Worth Center
09:00PM 32.9278 -96.7500 113° Southeast 500 575 41,000  Level Fort Worth Center
09:01PM 32.8642 -96.5872 115° Southeast 495 570 41,000  Level Fort Worth Center
09:02PM 32.8128 -96.4344 112° Southeast 495 570 41,000  Level Fort Worth Center
09:03PM 32.7553 -96.2869 115° Southeast 500 575 41,000  Level Fort Worth Center
09:04PM 32.6975 -96.1347 114° Southeast 500 575 41,000  Level Fort Worth Center
09:05PM 32.6417 -95.9825 114° Southeast 495 570 41,000  Level Fort Worth Center
09:06PM 32.5814 -95.8381 116° Southeast 495 570 41,000  Level Fort Worth Center
09:07PM 32.5292 -95.6861 112° Southeast 495 570 41,000  Level Fort Worth Center
09:08PM 32.4708 -95.5369 115° Southeast 500 575 41,000  Level Fort Worth Center
09:09PM 32.4122 -95.3906 115° Southeast 494 568 41,000  Level Fort Worth Center
09:10PM 32.3553 -95.2419 114° Southeast 489 563 41,000  Level Fort Worth Center
09:11PM 32.2944 -95.0933 116° Southeast 494 568 41,000  Level Fort Worth Center
09:12PM 32.2347 -94.9256 113° Southeast 508 585 41,000  Level Fort Worth Center
09:13PM 32.1842 -94.7967 115° Southeast 498 573 41,000  Level Fort Worth Center
09:14PM 32.1164 -94.6564 120° Southeast 486 559 41,000  Level Fort Worth Center
09:15PM 32.0461 -94.4992 118° Southeast 486 559 41,000  Level Fort Worth Center
09:16PM 31.9803 -94.3592 119° Southeast 486 559 41,000  Level Fort Worth Center
09:17PM 31.9119 -94.2172 120° Southeast 492 566 41,000  Level Fort Worth Center
09:18PM 31.8478 -94.0753 118° Southeast 492 566 41,000  Level Fort Worth Center
09:18PM 31.8003 -93.9797 120° Southeast 493 567 41,000  Level Houston Center
09:19PM 31.7417 -93.8539 119° Southeast 494 568 41,000  Level Houston Center
09:20PM 31.6739 -93.7153 120° Southeast 490 564 41,000  Level Houston Center
09:21PM 31.6014 -93.5597 119° Southeast 490 564 41,000  Level Houston Center
09:22PM 31.5242 -93.4300 125° Southeast 485 558 41,000  Level Houston Center
09:23PM 31.4536 -93.2919 121° Southeast 493 567 41,000  Level Houston Center
09:24PM 31.3758 -93.1597 125° Southeast 488 562 41,000 -1,440 Level Houston Center
09:27PM 31.2269 -92.8847 122° Southeast 501 577 36,600 -1,980 Descending Houston Center
09:28PM 31.1483 -92.7525 125° Southeast 495 570 35,100 -840 Descending Houston Center
09:29PM 31.0753 -92.6167 122° Southeast 491 565 35,000 -720 Descending Houston Center
09:30PM 30.9950 -92.4744 123° Southeast 478 550 33,700 -2,040 Descending Houston Center
09:31PM 30.9183 -92.3453 125° Southeast 484 557 30,900 -2,580 Descending Houston Center
09:32PM 30.8450 -92.2100 122° Southeast 496 571 28,500 -2,460 Descending Houston Center
09:33PM 30.7589 -92.0611 124° Southeast 466 536 25,900 -2,280 Descending Houston Center
09:34PM 30.6914 -91.9408 123° Southeast 450 518 23,900 -1,920 Descending Houston Center
09:35PM 30.6242 -91.8236 124° Southeast 439 505 22,000 -1,980 Descending Houston Center
09:36PM 30.5583 -91.7083 124° Southeast 432 497 19,900 -1,620 Descending Houston Center
09:37PM 30.4925 -91.5928 123° Southeast 430 495 18,700 -1,140 Descending Houston Center
09:37PM 30.4533 -91.5222 123° Southeast 433 498 18,100 -840 Descending Houston Center
09:38PM 30.3883 -91.4061 123° Southeast 438 504 17,400 -1,020 Descending Houston Center
09:40PM 30.3639 -91.2406 100° East 450 518 16,000 -1,440 Descending Houston Center
09:40PM 30.3297 -91.1211 108° East 420 483 14,600 -1,500 Descending Houston Center
09:42PM 30.2908 -90.9853 108° East 410 472 13,000 -1,440 Descending Houston Center
09:42PM 30.2608 -90.8731 107° East 391 450 11,700 -1,080 Descending Houston Center
09:43PM 30.2328 -90.7561 105° East 378 435 11,000 -360 Descending Houston Center
09:44PM 30.2069 -90.6489 106° East 340 391 11,000 -600 Level Houston Center
09:45PM 30.1833 -90.5486 105° East 308 354 9,800 -1,860 Descending Houston Center
09:46PM 30.1578 -90.4606 109° East 282 325 7,300 -1,440 Descending Houston Center
09:47PM 30.1283 -90.3800 113° Southeast 269 310 7,000 -240 Descending Houston Center
09:48PM 30.1169 -90.3383 108° East 279 321 7,000  Level Houston Center
09:48PM 30.1028 -90.2992 113° Southeast 266 306 7,000 -240 Level Houston Center
09:49PM 30.0942 -90.2558 103° East 273 314 6,800 -1,020 Descending Houston Center
09:50PM 30.0794 -90.2161 113° Southeast 266 306 6,000 -840 Descending Houston Center
09:50PM 30.0714 -90.1781 104° East 268 308 6,000 -1,500 Level Houston Center
09:51PM 30.0647 -90.1447 103° East 220 253 4,500 -3,060 Descending Houston Center
09:51PM 30.0694 -90.1086 81° East 240 276 2,900 -2,400 Descending Houston Center
09:52PM 30.0792 -90.0767 71° East 202 232 2,100 -1,380 Descending Houston Center
09:52PM 30.0864 -90.0517 72° East 206 237 1,500 -1,020 Descending Houston Center
09:53PM 30.0564 -90.0169 135° Southeast 174 200 600 -900 Descending Houston Center
09:55PM 30.0333 -90.0167 101° East  Level FlightAware Approximate
10:02PM 30.0424 -90.0283 101° East  Level Estimated